N5NC LIMJ-LOWI
Flight info
| Callsign | N5NC |
|---|---|
| Flight time | 1h 3m |
| Altitude | 34000 |
| Route | LAGEN Q712 VOG DCT SRN DCT ABESI DCT GAMSA N871 MADEB MADEB1B |
| Aircraft | C525/L-SDFGRWYZ/LB1 |
Departure
| Time | 2026-04-16 03:49 |
|---|---|
| Airport | Genoa Cristoforo Colombo Airport (LIMJ) |
Arrival
| Time | 2026-04-16 04:52 |
|---|---|
| Airport | Innsbruck Airport (LOWI) |
| Time | Latitude | Longitude | Altitude | Speed | Heading |
|---|---|---|---|---|---|
| 2026-04-16 03:29 | 44.41742 | 8.85223 | 20 ft | 0 kts | 105° |
| 2026-04-16 03:45 | 44.41743 | 8.85224 | 20 ft | 0 kts | 21° |
| 2026-04-16 03:46 | 44.41746 | 8.85177 | 19 ft | 12 kts | 261° |
| 2026-04-16 03:46 | 44.41689 | 8.85047 | 19 ft | 18 kts | 221° |
| 2026-04-16 03:46 | 44.41592 | 8.84903 | 18 ft | 22 kts | 230° |
| 2026-04-16 03:46 | 44.41494 | 8.84732 | 18 ft | 21 kts | 231° |
| 2026-04-16 03:47 | 44.41404 | 8.84566 | 17 ft | 21 kts | 232° |
| 2026-04-16 03:47 | 44.41318 | 8.84398 | 16 ft | 19 kts | 257° |
| 2026-04-16 03:47 | 44.41345 | 8.84213 | 16 ft | 20 kts | 286° |
| 2026-04-16 03:47 | 44.41385 | 8.84013 | 16 ft | 22 kts | 285° |
| 2026-04-16 03:48 | 44.41421 | 8.83808 | 16 ft | 18 kts | 263° |
| 2026-04-16 03:48 | 44.41329 | 8.83760 | 16 ft | 15 kts | 148° |
| 2026-04-16 03:48 | 44.41259 | 8.83869 | 16 ft | 20 kts | 105° |
| 2026-04-16 03:48 | 44.41167 | 8.84337 | 16 ft | 79 kts | 105° |
| 2026-04-16 03:49 | 44.40967 | 8.85241 | 194 ft | 104 kts | 108° |
| 2026-04-16 03:49 | 44.40719 | 8.86219 | 557 ft | 110 kts | 104° |
| 2026-04-16 03:49 | 44.40455 | 8.87291 | 832 ft | 128 kts | 105° |
| 2026-04-16 03:49 | 44.39942 | 8.88440 | 1063 ft | 156 kts | 134° |
| 2026-04-16 03:50 | 44.38853 | 8.88882 | 1382 ft | 179 kts | 187° |
| 2026-04-16 03:50 | 44.37739 | 8.88053 | 1847 ft | 188 kts | 221° |
| 2026-04-16 03:50 | 44.36783 | 8.86771 | 2316 ft | 196 kts | 227° |
| 2026-04-16 03:50 | 44.35843 | 8.85373 | 2822 ft | 202 kts | 228° |
| 2026-04-16 03:51 | 44.34890 | 8.83922 | 3454 ft | 204 kts | 228° |
| 2026-04-16 03:51 | 44.33900 | 8.82532 | 4047 ft | 206 kts | 216° |
| 2026-04-16 03:51 | 44.32554 | 8.81892 | 4669 ft | 205 kts | 188° |
| 2026-04-16 03:51 | 44.31116 | 8.81663 | 5206 ft | 210 kts | 183° |
| 2026-04-16 03:52 | 44.29684 | 8.81534 | 5819 ft | 210 kts | 181° |
| 2026-04-16 03:52 | 44.28215 | 8.81425 | 6385 ft | 213 kts | 181° |
| 2026-04-16 03:52 | 44.26740 | 8.81320 | 6946 ft | 214 kts | 181° |
| 2026-04-16 03:52 | 44.25248 | 8.81215 | 7499 ft | 216 kts | 181° |
| 2026-04-16 03:53 | 44.23754 | 8.81109 | 8043 ft | 217 kts | 181° |
| 2026-04-16 03:53 | 44.22238 | 8.81000 | 8569 ft | 219 kts | 181° |
| 2026-04-16 03:53 | 44.20731 | 8.80891 | 9092 ft | 219 kts | 181° |
| 2026-04-16 03:53 | 44.19207 | 8.80781 | 9608 ft | 221 kts | 181° |
| 2026-04-16 03:54 | 44.17657 | 8.80669 | 10121 ft | 223 kts | 181° |
| 2026-04-16 03:54 | 44.16123 | 8.80558 | 10633 ft | 225 kts | 182° |
| 2026-04-16 03:54 | 44.14556 | 8.80445 | 11115 ft | 227 kts | 182° |
| 2026-04-16 03:54 | 44.12975 | 8.80325 | 11598 ft | 230 kts | 184° |
| 2026-04-16 03:55 | 44.11494 | 8.79596 | 12033 ft | 232 kts | 218° |
| 2026-04-16 03:55 | 44.10607 | 8.77797 | 12498 ft | 229 kts | 256° |
| 2026-04-16 03:55 | 44.10652 | 8.75635 | 12900 ft | 226 kts | 293° |
| 2026-04-16 03:55 | 44.11609 | 8.73923 | 13162 ft | 229 kts | 328° |
| 2026-04-16 03:56 | 44.13109 | 8.73208 | 13452 ft | 237 kts | 352° |
| 2026-04-16 03:56 | 44.14771 | 8.72948 | 13928 ft | 239 kts | 356° |
| 2026-04-16 03:56 | 44.16407 | 8.72792 | 14440 ft | 238 kts | 358° |
| 2026-04-16 03:56 | 44.18052 | 8.72651 | 14876 ft | 239 kts | 357° |
| 2026-04-16 03:57 | 44.19702 | 8.72363 | 15306 ft | 242 kts | 343° |
| 2026-04-16 03:57 | 44.21147 | 8.71204 | 15778 ft | 243 kts | 327° |
| 2026-04-16 03:57 | 44.22495 | 8.69751 | 16154 ft | 246 kts | 323° |
| 2026-04-16 03:57 | 44.23809 | 8.68230 | 16576 ft | 247 kts | 323° |
| 2026-04-16 03:58 | 44.25135 | 8.66673 | 16952 ft | 250 kts | 323° |
| 2026-04-16 03:58 | 44.26457 | 8.65113 | 17364 ft | 250 kts | 322° |
| 2026-04-16 03:58 | 44.27779 | 8.63552 | 17739 ft | 251 kts | 322° |
| 2026-04-16 03:58 | 44.29108 | 8.61984 | 18115 ft | 252 kts | 323° |
| 2026-04-16 03:59 | 44.30439 | 8.60412 | 18487 ft | 253 kts | 322° |
| 2026-04-16 03:59 | 44.31782 | 8.58827 | 18852 ft | 254 kts | 323° |
| 2026-04-16 03:59 | 44.33132 | 8.57233 | 19200 ft | 256 kts | 323° |
| 2026-04-16 03:59 | 44.34491 | 8.55627 | 19589 ft | 256 kts | 323° |
| 2026-04-16 04:00 | 44.35849 | 8.54022 | 19919 ft | 259 kts | 323° |
| 2026-04-16 04:00 | 44.37231 | 8.52393 | 20276 ft | 259 kts | 324° |
| 2026-04-16 04:00 | 44.38821 | 8.51294 | 20565 ft | 258 kts | 351° |
| 2026-04-16 04:00 | 44.40565 | 8.51539 | 20935 ft | 257 kts | 17° |
| 2026-04-16 04:01 | 44.42230 | 8.52521 | 21261 ft | 259 kts | 25° |
| 2026-04-16 04:01 | 44.43824 | 8.53679 | 21567 ft | 262 kts | 27° |
| 2026-04-16 04:01 | 44.45429 | 8.54920 | 21926 ft | 263 kts | 28° |
| 2026-04-16 04:01 | 44.47010 | 8.56172 | 22219 ft | 265 kts | 28° |
| 2026-04-16 04:02 | 44.48613 | 8.57459 | 22569 ft | 265 kts | 28° |
| 2026-04-16 04:02 | 44.50205 | 8.58748 | 22898 ft | 266 kts | 28° |
| 2026-04-16 04:02 | 44.51805 | 8.60050 | 23178 ft | 268 kts | 28° |
| 2026-04-16 04:02 | 44.53417 | 8.61369 | 23493 ft | 269 kts | 28° |
| 2026-04-16 04:03 | 44.55033 | 8.62695 | 23770 ft | 271 kts | 29° |
| 2026-04-16 04:03 | 44.56674 | 8.64045 | 24069 ft | 273 kts | 29° |
| 2026-04-16 04:03 | 44.58308 | 8.65391 | 24338 ft | 275 kts | 29° |
| 2026-04-16 04:03 | 44.59940 | 8.66739 | 24652 ft | 275 kts | 29° |
| 2026-04-16 04:04 | 44.61589 | 8.68095 | 24904 ft | 277 kts | 28° |
| 2026-04-16 04:04 | 44.63264 | 8.69470 | 25191 ft | 278 kts | 28° |
| 2026-04-16 04:04 | 44.64939 | 8.70845 | 25431 ft | 280 kts | 28° |
| 2026-04-16 04:04 | 44.66611 | 8.72220 | 25724 ft | 281 kts | 28° |
| 2026-04-16 04:05 | 44.68302 | 8.73613 | 25985 ft | 281 kts | 28° |
| 2026-04-16 04:05 | 44.69986 | 8.75000 | 26243 ft | 280 kts | 28° |
| 2026-04-16 04:05 | 44.71659 | 8.76382 | 26500 ft | 280 kts | 28° |
| 2026-04-16 04:05 | 44.73331 | 8.77764 | 26757 ft | 279 kts | 28° |
| 2026-04-16 04:06 | 44.75009 | 8.79153 | 27014 ft | 279 kts | 28° |
| 2026-04-16 04:06 | 44.76659 | 8.80520 | 27271 ft | 277 kts | 28° |
| 2026-04-16 04:06 | 44.78335 | 8.81909 | 27422 ft | 279 kts | 29° |
| 2026-04-16 04:06 | 44.80003 | 8.83294 | 27557 ft | 281 kts | 29° |
| 2026-04-16 04:07 | 44.81702 | 8.84706 | 27689 ft | 283 kts | 29° |
| 2026-04-16 04:07 | 44.85097 | 8.87530 | 27946 ft | 287 kts | 29° |
| 2026-04-16 04:07 | 44.86823 | 8.88968 | 28075 ft | 288 kts | 29° |
| 2026-04-16 04:08 | 44.88535 | 8.90395 | 28205 ft | 289 kts | 29° |
| 2026-04-16 04:08 | 44.90271 | 8.91843 | 28374 ft | 289 kts | 29° |
| 2026-04-16 04:08 | 44.91993 | 8.93281 | 28555 ft | 289 kts | 28° |
| 2026-04-16 04:08 | 44.93723 | 8.94726 | 28740 ft | 288 kts | 28° |
| 2026-04-16 04:09 | 44.95440 | 8.96135 | 28922 ft | 287 kts | 25° |
| 2026-04-16 04:09 | 44.97332 | 8.96926 | 29111 ft | 283 kts | 7° |
| 2026-04-16 04:09 | 44.99285 | 8.97217 | 29293 ft | 282 kts | 3° |
| 2026-04-16 04:09 | 45.01243 | 8.97391 | 29455 ft | 283 kts | 2° |
| 2026-04-16 04:10 | 45.03228 | 8.97541 | 29595 ft | 284 kts | 2° |
| 2026-04-16 04:10 | 45.05193 | 8.97683 | 29730 ft | 285 kts | 2° |
| 2026-04-16 04:10 | 45.07180 | 8.97827 | 29866 ft | 286 kts | 2° |
| 2026-04-16 04:10 | 45.09151 | 8.97972 | 30001 ft | 286 kts | 2° |
| 2026-04-16 04:11 | 45.11159 | 8.98119 | 30138 ft | 287 kts | 2° |
| 2026-04-16 04:11 | 45.13146 | 8.98266 | 30272 ft | 289 kts | 2° |
| 2026-04-16 04:11 | 45.15165 | 8.98416 | 30407 ft | 290 kts | 2° |
| 2026-04-16 04:11 | 45.17189 | 8.98567 | 30541 ft | 292 kts | 2° |
| 2026-04-16 04:12 | 45.19202 | 8.98717 | 30671 ft | 293 kts | 1° |
| 2026-04-16 04:12 | 45.21244 | 8.98870 | 30801 ft | 295 kts | 1° |
| 2026-04-16 04:12 | 45.23294 | 8.99024 | 30934 ft | 296 kts | 1° |
| 2026-04-16 04:12 | 45.25359 | 8.99179 | 31068 ft | 297 kts | 1° |
| 2026-04-16 04:13 | 45.27426 | 8.99334 | 31203 ft | 298 kts | 1° |
| 2026-04-16 04:13 | 45.29488 | 8.99490 | 31337 ft | 299 kts | 1° |
| 2026-04-16 04:13 | 45.31573 | 8.99647 | 31470 ft | 299 kts | 1° |
| 2026-04-16 04:13 | 45.33658 | 8.99804 | 31603 ft | 300 kts | 1° |
| 2026-04-16 04:14 | 45.35730 | 8.99961 | 31732 ft | 301 kts | 1° |
| 2026-04-16 04:14 | 45.37817 | 9.00118 | 31859 ft | 301 kts | 1° |
| 2026-04-16 04:14 | 45.39923 | 9.00277 | 31990 ft | 301 kts | 1° |
| 2026-04-16 04:14 | 45.42001 | 9.00435 | 32122 ft | 302 kts | 1° |
| 2026-04-16 04:15 | 45.44100 | 9.00594 | 32251 ft | 302 kts | 1° |
| 2026-04-16 04:15 | 45.46187 | 9.00752 | 32381 ft | 303 kts | 1° |
| 2026-04-16 04:15 | 45.48304 | 9.00913 | 32512 ft | 303 kts | 1° |
| 2026-04-16 04:15 | 45.50407 | 9.01072 | 32642 ft | 303 kts | 1° |
| 2026-04-16 04:16 | 45.52507 | 9.01232 | 32772 ft | 303 kts | 1° |
| 2026-04-16 04:16 | 45.54618 | 9.01393 | 32903 ft | 303 kts | 1° |
| 2026-04-16 04:16 | 45.56706 | 9.01551 | 33032 ft | 303 kts | 1° |
| 2026-04-16 04:16 | 45.58827 | 9.01713 | 33161 ft | 303 kts | 1° |
| 2026-04-16 04:17 | 45.60928 | 9.01873 | 33290 ft | 304 kts | 1° |
| 2026-04-16 04:17 | 45.63031 | 9.02033 | 33421 ft | 306 kts | 1° |
| 2026-04-16 04:17 | 45.65178 | 9.02191 | 33553 ft | 308 kts | 0° |
| 2026-04-16 04:17 | 45.67332 | 9.02294 | 33686 ft | 310 kts | 359° |
| 2026-04-16 04:18 | 45.69473 | 9.02379 | 33815 ft | 312 kts | 359° |
| 2026-04-16 04:18 | 45.71662 | 9.02462 | 33947 ft | 314 kts | 359° |
| 2026-04-16 04:18 | 45.73845 | 9.02546 | 34077 ft | 316 kts | 359° |
| 2026-04-16 04:18 | 45.76074 | 9.02633 | 34134 ft | 320 kts | 359° |
| 2026-04-16 04:19 | 45.80568 | 9.02811 | 34150 ft | 330 kts | 359° |
| 2026-04-16 04:19 | 45.85225 | 9.02999 | 34151 ft | 339 kts | 359° |
| 2026-04-16 04:20 | 45.89974 | 9.03193 | 34148 ft | 347 kts | 359° |
| 2026-04-16 04:20 | 45.94855 | 9.03394 | 34155 ft | 354 kts | 359° |
| 2026-04-16 04:21 | 45.99820 | 9.03599 | 34160 ft | 361 kts | 359° |
| 2026-04-16 04:21 | 46.04853 | 9.03808 | 34156 ft | 366 kts | 359° |
| 2026-04-16 04:22 | 46.10007 | 9.04022 | 34150 ft | 371 kts | 359° |
| 2026-04-16 04:22 | 46.15198 | 9.04351 | 34148 ft | 378 kts | 5° |
| 2026-04-16 04:23 | 46.20278 | 9.06301 | 34169 ft | 383 kts | 15° |
| 2026-04-16 04:23 | 46.25387 | 9.08732 | 34177 ft | 387 kts | 15° |
| 2026-04-16 04:24 | 46.30495 | 9.11187 | 34190 ft | 389 kts | 16° |
| 2026-04-16 04:24 | 46.35610 | 9.13646 | 34206 ft | 391 kts | 16° |
| 2026-04-16 04:25 | 46.40774 | 9.16130 | 34209 ft | 393 kts | 16° |
| 2026-04-16 04:25 | 46.45992 | 9.18642 | 34206 ft | 395 kts | 15° |
| 2026-04-16 04:26 | 46.51238 | 9.21172 | 34208 ft | 397 kts | 15° |
| 2026-04-16 04:26 | 46.56446 | 9.23689 | 34206 ft | 398 kts | 15° |
| 2026-04-16 04:27 | 46.61716 | 9.26240 | 34205 ft | 399 kts | 15° |
| 2026-04-16 04:27 | 46.66969 | 9.28789 | 34214 ft | 400 kts | 15° |
| 2026-04-16 04:28 | 46.72228 | 9.31344 | 34220 ft | 400 kts | 15° |
| 2026-04-16 04:28 | 46.77490 | 9.33907 | 34229 ft | 401 kts | 15° |
| 2026-04-16 04:29 | 46.82811 | 9.36505 | 34232 ft | 402 kts | 15° |
| 2026-04-16 04:29 | 46.88110 | 9.39096 | 34132 ft | 403 kts | 15° |
| 2026-04-16 04:30 | 46.90747 | 9.40389 | 33861 ft | 400 kts | 15° |
| 2026-04-16 04:30 | 46.93340 | 9.41661 | 33596 ft | 396 kts | 15° |
| 2026-04-16 04:30 | 46.95945 | 9.42940 | 33337 ft | 393 kts | 15° |
| 2026-04-16 04:30 | 46.98529 | 9.44210 | 33071 ft | 391 kts | 15° |
| 2026-04-16 04:31 | 47.01111 | 9.45480 | 32678 ft | 390 kts | 15° |
| 2026-04-16 04:31 | 47.03667 | 9.46739 | 32260 ft | 389 kts | 15° |
| 2026-04-16 04:31 | 47.06227 | 9.48000 | 31845 ft | 387 kts | 15° |
| 2026-04-16 04:31 | 47.08770 | 9.49255 | 31433 ft | 386 kts | 15° |
| 2026-04-16 04:32 | 47.11307 | 9.50507 | 31020 ft | 384 kts | 15° |
| 2026-04-16 04:32 | 47.13802 | 9.51741 | 30611 ft | 382 kts | 15° |
| 2026-04-16 04:32 | 47.16317 | 9.52985 | 30186 ft | 381 kts | 15° |
| 2026-04-16 04:32 | 47.18820 | 9.54225 | 29759 ft | 379 kts | 15° |
| 2026-04-16 04:33 | 47.21295 | 9.55452 | 29338 ft | 377 kts | 15° |
| 2026-04-16 04:33 | 47.23774 | 9.56682 | 28908 ft | 375 kts | 15° |
| 2026-04-16 04:33 | 47.26226 | 9.57901 | 28484 ft | 374 kts | 15° |
| 2026-04-16 04:33 | 47.28673 | 9.59117 | 28060 ft | 372 kts | 15° |
| 2026-04-16 04:34 | 47.31142 | 9.60346 | 27633 ft | 370 kts | 15° |
| 2026-04-16 04:34 | 47.33559 | 9.61552 | 27212 ft | 369 kts | 15° |
| 2026-04-16 04:34 | 47.35825 | 9.63229 | 26769 ft | 373 kts | 33° |
| 2026-04-16 04:34 | 47.37595 | 9.66033 | 26352 ft | 377 kts | 54° |
| 2026-04-16 04:35 | 47.38608 | 9.69622 | 25883 ft | 380 kts | 75° |
| 2026-04-16 04:35 | 47.38776 | 9.73456 | 25442 ft | 380 kts | 90° |
| 2026-04-16 04:35 | 47.38599 | 9.77311 | 24974 ft | 379 kts | 94° |
| 2026-04-16 04:35 | 47.38294 | 9.81159 | 24501 ft | 377 kts | 96° |
| 2026-04-16 04:36 | 47.37928 | 9.84977 | 23996 ft | 375 kts | 97° |
| 2026-04-16 04:36 | 47.37530 | 9.88721 | 23483 ft | 372 kts | 98° |
| 2026-04-16 04:36 | 47.37105 | 9.92481 | 22977 ft | 370 kts | 98° |
| 2026-04-16 04:36 | 47.36669 | 9.96166 | 22477 ft | 368 kts | 98° |
| 2026-04-16 04:37 | 47.36215 | 9.99876 | 21967 ft | 365 kts | 99° |
| 2026-04-16 04:37 | 47.35759 | 10.03520 | 21472 ft | 364 kts | 99° |
| 2026-04-16 04:37 | 47.35299 | 10.07134 | 20968 ft | 362 kts | 99° |
| 2026-04-16 04:37 | 47.34828 | 10.10781 | 20454 ft | 360 kts | 99° |
| 2026-04-16 04:38 | 47.34356 | 10.14396 | 19958 ft | 358 kts | 99° |
| 2026-04-16 04:38 | 47.33887 | 10.17963 | 19462 ft | 357 kts | 99° |
| 2026-04-16 04:38 | 47.33416 | 10.21511 | 18960 ft | 355 kts | 99° |
| 2026-04-16 04:38 | 47.32944 | 10.25057 | 18439 ft | 351 kts | 99° |
| 2026-04-16 04:39 | 47.32477 | 10.28542 | 17930 ft | 347 kts | 99° |
| 2026-04-16 04:39 | 47.32011 | 10.31989 | 17416 ft | 338 kts | 99° |
| 2026-04-16 04:39 | 47.31558 | 10.35313 | 16985 ft | 328 kts | 99° |
| 2026-04-16 04:39 | 47.31116 | 10.38544 | 16593 ft | 318 kts | 99° |
| 2026-04-16 04:40 | 47.30685 | 10.41686 | 16174 ft | 311 kts | 99° |
| 2026-04-16 04:40 | 47.30266 | 10.44738 | 15776 ft | 304 kts | 99° |
| 2026-04-16 04:40 | 47.29851 | 10.47754 | 15360 ft | 299 kts | 99° |
| 2026-04-16 04:40 | 47.29437 | 10.50753 | 14944 ft | 294 kts | 99° |
| 2026-04-16 04:41 | 47.29037 | 10.53644 | 14548 ft | 290 kts | 99° |
| 2026-04-16 04:41 | 47.28664 | 10.56516 | 14130 ft | 285 kts | 95° |
| 2026-04-16 04:41 | 47.28636 | 10.59403 | 13729 ft | 278 kts | 86° |
| 2026-04-16 04:41 | 47.28726 | 10.62202 | 13328 ft | 269 kts | 84° |
| 2026-04-16 04:42 | 47.28838 | 10.64878 | 13042 ft | 258 kts | 84° |
| 2026-04-16 04:42 | 47.28945 | 10.67391 | 13093 ft | 229 kts | 84° |
| 2026-04-16 04:42 | 47.29041 | 10.69653 | 12878 ft | 215 kts | 84° |
| 2026-04-16 04:42 | 47.29134 | 10.71806 | 12517 ft | 210 kts | 84° |
| 2026-04-16 04:43 | 47.29224 | 10.73922 | 12179 ft | 205 kts | 84° |
| 2026-04-16 04:43 | 47.29311 | 10.75977 | 11845 ft | 202 kts | 84° |
| 2026-04-16 04:43 | 47.29395 | 10.78020 | 11550 ft | 199 kts | 84° |
| 2026-04-16 04:43 | 47.29478 | 10.80047 | 11256 ft | 197 kts | 84° |
| 2026-04-16 04:44 | 47.29561 | 10.82058 | 10898 ft | 199 kts | 84° |
| 2026-04-16 04:44 | 47.29642 | 10.84083 | 10510 ft | 200 kts | 84° |
| 2026-04-16 04:44 | 47.29723 | 10.86135 | 10130 ft | 202 kts | 84° |
| 2026-04-16 04:44 | 47.29803 | 10.88185 | 9732 ft | 202 kts | 84° |
| 2026-04-16 04:45 | 47.29883 | 10.90238 | 9324 ft | 203 kts | 85° |
| 2026-04-16 04:45 | 47.29962 | 10.92310 | 8913 ft | 203 kts | 85° |
| 2026-04-16 04:45 | 47.30042 | 10.94390 | 8499 ft | 203 kts | 85° |
| 2026-04-16 04:45 | 47.30120 | 10.96446 | 8100 ft | 203 kts | 85° |
| 2026-04-16 04:46 | 47.30195 | 10.98475 | 7685 ft | 191 kts | 85° |
| 2026-04-16 04:46 | 47.30226 | 11.00357 | 7265 ft | 181 kts | 90° |
| 2026-04-16 04:46 | 47.30087 | 11.02155 | 6890 ft | 174 kts | 98° |
| 2026-04-16 04:46 | 47.29841 | 11.03882 | 6495 ft | 170 kts | 101° |
| 2026-04-16 04:47 | 47.29569 | 11.05531 | 6175 ft | 164 kts | 103° |
| 2026-04-16 04:47 | 47.29259 | 11.07120 | 5853 ft | 159 kts | 104° |
| 2026-04-16 04:47 | 47.28923 | 11.08648 | 5530 ft | 158 kts | 107° |
| 2026-04-16 04:47 | 47.28578 | 11.10168 | 5246 ft | 155 kts | 105° |
| 2026-04-16 04:48 | 47.28243 | 11.11649 | 5046 ft | 149 kts | 106° |
| 2026-04-16 04:48 | 47.27938 | 11.13069 | 4831 ft | 146 kts | 105° |
| 2026-04-16 04:48 | 47.27645 | 11.14488 | 4604 ft | 144 kts | 103° |
| 2026-04-16 04:48 | 47.27374 | 11.15886 | 4425 ft | 141 kts | 102° |
| 2026-04-16 04:49 | 47.27129 | 11.17259 | 4287 ft | 138 kts | 102° |
| 2026-04-16 04:49 | 47.26903 | 11.18632 | 4108 ft | 140 kts | 102° |
| 2026-04-16 04:49 | 47.26660 | 11.20029 | 3964 ft | 139 kts | 103° |
| 2026-04-16 04:49 | 47.26407 | 11.21392 | 3822 ft | 139 kts | 105° |
| 2026-04-16 04:50 | 47.26126 | 11.22750 | 3682 ft | 140 kts | 105° |
| 2026-04-16 04:50 | 47.25850 | 11.24149 | 3521 ft | 144 kts | 104° |
| 2026-04-16 04:50 | 47.25587 | 11.25569 | 3410 ft | 136 kts | 101° |
| 2026-04-16 04:50 | 47.25435 | 11.26885 | 3220 ft | 128 kts | 92° |
| 2026-04-16 04:51 | 47.25387 | 11.28160 | 2996 ft | 123 kts | 85° |
| 2026-04-16 04:51 | 47.25471 | 11.29397 | 2775 ft | 121 kts | 79° |
| 2026-04-16 04:51 | 47.25613 | 11.30611 | 2516 ft | 121 kts | 79° |
| 2026-04-16 04:51 | 47.25745 | 11.31843 | 2237 ft | 122 kts | 79° |
| 2026-04-16 04:52 | 47.25878 | 11.33070 | 1973 ft | 121 kts | 80° |
| 2026-04-16 04:52 | 47.25999 | 11.34213 | 1905 ft | 99 kts | 80° |
| 2026-04-16 04:52 | 47.26089 | 11.35051 | 1900 ft | 53 kts | 80° |
| 2026-04-16 04:52 | 47.26067 | 11.35260 | 1899 ft | 14 kts | 168° |
| 2026-04-16 04:53 | 47.25961 | 11.35282 | 1899 ft | 16 kts | 170° |
| 2026-04-16 04:53 | 47.25898 | 11.35245 | 1899 ft | 11 kts | 255° |
| 2026-04-16 04:53 | 47.25884 | 11.35119 | 1900 ft | 13 kts | 261° |
| 2026-04-16 04:53 | 47.25868 | 11.34967 | 1901 ft | 16 kts | 261° |
| 2026-04-16 04:54 | 47.25848 | 11.34790 | 1902 ft | 18 kts | 261° |
| 2026-04-16 04:54 | 47.25828 | 11.34601 | 1903 ft | 18 kts | 261° |
| 2026-04-16 04:54 | 47.25777 | 11.34531 | 1903 ft | 10 kts | 166° |
| 2026-04-16 04:54 | 47.25751 | 11.34599 | 1903 ft | 8 kts | 65° |
| 2026-04-16 04:55 | 47.25770 | 11.34635 | 1903 ft | 0 kts | 197° |